CheckWX is a tool to help pilots better visualize weather data.  It is not intended as a substitute for an official pre-flight weather briefing.

07:32:26 UTC

KBAF METAR
Westfield-Barnes Regional Airport
Westfield/Springfield, Massachusetts, USA
Current

39 mins ago

KBAF 210653Z AUTO 33015G27KT 10SM FEW050 13/04 A2979 RMK AO2 PK WND 31027/0650 SLP086 T01330044
Observed
May-21 @ 06:53 UTC
Wind
  • 330° at 15 KTS
  • Gusting to 27 KTS
Visibility
10 SM
Flight Rules
VFR
Cloud Levels
  • Few at 5,000' AGL
Temperature
13°C / 55°F
Dewpoint
C / 39°F
Humidity
55%
Altimeter
29.79" Hg
Pressure
1008.82 hPa
Previous

2 hours ago

KBAF 210553Z AUTO 31017G23KT 10SM CLR 14/06 A2978 RMK AO2 PK WND 31027/0539 SLP082 T01390056 10244 20139 51009
Observed
May-21 @ 05:53 UTC
Wind
  • 310° at 17 KTS
  • Gusting to 23 KTS
Visibility
10 SM
Flight Rules
VFR
Cloud Levels
  • Clear skies
Temperature
14°C / 57°F
Dewpoint
C / 43°F
Humidity
59%
Altimeter
29.78" Hg
Pressure
1008.42 hPa
Previous

3 hours ago

KBAF 210453Z AUTO 33011G19KT 10SM CLR 16/07 A2978 RMK AO2 SLP081 T01560067 402940156
Observed
May-21 @ 04:53 UTC
Wind
  • 330° at 11 KTS
  • Gusting to 19 KTS
Visibility
10 SM
Flight Rules
VFR
Cloud Levels
  • Clear skies
Temperature
16°C / 61°F
Dewpoint
C / 45°F
Humidity
55%
Altimeter
29.78" Hg
Pressure
1008.42 hPa